PWSweather.com
Personal Weather Stations
Station Observations
KVAGLENALL
West Henrico, Glen Allen, VA 23060-6503

West HenricoGlen Allen, VA 23060-6503

Lat: 37.6554, Lon: -77.5693

Elevation: 273

Station Type: Davis Vantage Pro II

www.glenallenweather.com

High Low Average
Temperature 57.6°F14.2°C 26.7°F-2.9°C 42.2°F5.7°C
Dew Point 50.0°F10.0°C 20.1°F-6.6°C 37.0°F2.8°C
Winds 9.0 mph 14.5 kmh Calm Calm 3.0 mph SSW4.8 kmh SSW
Wind Gusts 20.2 mph32.5 kmh -- 7.0 mph11.3 kmh
Humidity 95% 59% 83%
Pressure 30.28 in1025.4 mb 29.82 in1009.8 mb -
Precipitation 0.00 in0.0 mm - -
Hour Temp Dew Point Humidity Winds Wind Gusts Pressure Precip Precip Rate Daily Precip Total
12:30 AM 57.6°F14.2°C 43.4°F6.3°C 59% 5.0 mph SW8.0 kmh SW 8.1 mph13.0 kmh 29.86 in1011.2 mb 0.00 in0.0 mm 0.00 in0.0 mm 0.00 in0.0 mm
01:30 AM 57.6°F14.2°C 44.3°F6.8°C 61% 7.0 mph SSW11.3 kmh SSW 17.2 mph27.7 kmh 29.84 in1010.5 mb 0.00 in0.0 mm 0.00 in0.0 mm 0.00 in0.0 mm
02:30 AM 57.5°F14.2°C 45.0°F7.2°C 63% 4.0 mph WSW6.4 kmh WSW 12.1 mph19.5 kmh 29.84 in1010.5 mb 0.00 in0.0 mm 0.00 in0.0 mm 0.00 in0.0 mm
03:30 AM 57.1°F13.9°C 45.5°F7.5°C 65% 4.0 mph S6.4 kmh S 11.1 mph17.9 kmh 29.83 in1010.2 mb 0.00 in0.0 mm 0.00 in0.0 mm 0.00 in0.0 mm
04:30 AM 56.7°F13.7°C 46.3°F7.9°C 68% 4.0 mph SW6.4 kmh SW 6.1 mph9.8 kmh 29.83 in1010.2 mb 0.00 in0.0 mm 0.00 in0.0 mm 0.00 in0.0 mm
05:30 AM 56.8°F13.8°C 47.1°F8.4°C 70% 3.0 mph SSW4.8 kmh SSW 8.1 mph13.0 kmh 29.82 in1009.8 mb 0.00 in0.0 mm 0.00 in0.0 mm 0.00 in0.0 mm
06:30 AM 54.0°F12.2°C 48.6°F9.2°C 82% 2.0 mph SSW3.2 kmh SSW 3.0 mph4.8 kmh 29.83 in1010.2 mb 0.01 in0.3 mm 0.00 in0.0 mm 0.01 in0.3 mm
07:30 AM 52.3°F11.3°C 49.4°F9.7°C 90% Calm Calm 1.0 mph1.6 kmh 29.85 in1010.8 mb 0.02 in0.5 mm 0.00 in0.0 mm 0.02 in0.5 mm
08:30 AM 52.3°F11.3°C 50.0°F10.0°C 92% 1.0 mph WSW1.6 kmh WSW 5.1 mph8.2 kmh 29.89 in1012.2 mb 0.05 in1.3 mm 0.00 in0.0 mm 0.05 in1.3 mm
09:30 AM 48.2°F9.0°C 45.5°F7.5°C 90% 6.0 mph N9.7 kmh N 20.2 mph32.5 kmh 29.94 in1013.9 mb 0.17 in4.3 mm 0.00 in0.0 mm 0.17 in4.3 mm
10:30 AM 42.9°F6.1°C 40.5°F4.7°C 91% 8.0 mph NW12.9 kmh NW 18.2 mph29.3 kmh 29.99 in1015.6 mb 0.17 in4.3 mm 0.00 in0.0 mm 0.17 in4.3 mm
11:30 AM 38.6°F3.7°C 36.8°F2.7°C 93% 9.0 mph N14.5 kmh N 14.1 mph22.7 kmh 29.99 in1015.6 mb 0.18 in4.6 mm 0.00 in0.0 mm 0.18 in4.6 mm
12:30 PM 34.4°F1.3°C 32.8°F0.4°C 94% 3.0 mph NNE4.8 kmh NNE 4.0 mph6.4 kmh 30.01 in1016.3 mb 0.19 in4.8 mm 0.00 in0.0 mm 0.19 in4.8 mm
01:30 PM 33.6°F0.9°C 32.3°F0.2°C 95% 1.0 mph NNE1.6 kmh NNE 4.0 mph6.4 kmh 30.01 in1016.3 mb 0.09 in2.3 mm 0.00 in0.0 mm 0.19 in4.8 mm
02:30 PM 34.0°F1.1°C 32.7°F0.4°C 95% 2.0 mph NE3.2 kmh NE 5.1 mph8.2 kmh 30.00 in1015.9 mb 0.05 in1.3 mm 0.00 in0.0 mm 0.19 in4.8 mm
03:30 PM 35.0°F1.7°C 33.7°F0.9°C 95% 2.0 mph NE3.2 kmh NE 5.1 mph8.2 kmh 30.02 in1016.6 mb 0.05 in1.3 mm 0.00 in0.0 mm 0.19 in4.8 mm
04:30 PM 36.1°F2.3°C 34.8°F1.6°C 95% 3.0 mph NW4.8 kmh NW 3.0 mph4.8 kmh 30.05 in1017.6 mb 0.02 in0.5 mm 0.00 in0.0 mm 0.19 in4.8 mm
05:30 PM 34.2°F1.2°C 32.9°F0.5°C 95% Calm Calm -- 30.08 in1018.6 mb 0.04 in1.0 mm 0.00 in0.0 mm 0.21 in5.3 mm
06:30 PM 31.9°F-0.1°C 30.1°F-1.1°C 93% 2.0 mph NW3.2 kmh NW 4.0 mph6.4 kmh 30.12 in1020.0 mb 0.00 in0.0 mm 0.00 in0.0 mm 0.21 in5.3 mm
07:30 PM 30.7°F-0.7°C 27.3°F-2.6°C 87% 2.0 mph NNW3.2 kmh NNW 6.1 mph9.8 kmh 30.17 in1021.7 mb 0.00 in0.0 mm 0.00 in0.0 mm 0.21 in5.3 mm
08:30 PM 29.6°F-1.3°C 24.7°F-4.1°C 82% 2.0 mph NNW3.2 kmh NNW 3.0 mph4.8 kmh 30.21 in1023.0 mb 0.00 in0.0 mm 0.00 in0.0 mm 0.21 in5.3 mm
09:30 PM 28.5°F-1.9°C 23.2°F-4.9°C 80% 2.0 mph N3.2 kmh N 4.0 mph6.4 kmh 30.24 in1024.0 mb 0.00 in0.0 mm 0.00 in0.0 mm 0.21 in5.3 mm
10:30 PM 26.7°F-2.9°C 22.0°F-5.6°C 82% 3.0 mph NNW4.8 kmh NNW 8.1 mph13.0 kmh 30.26 in1024.7 mb 0.00 in0.0 mm 0.00 in0.0 mm 0.21 in5.3 mm
11:30 PM 27.9°F-2.3°C 20.1°F-6.6°C 72% 5.0 mph N8.0 kmh N 9.1 mph14.6 kmh 30.28 in1025.4 mb 0.00 in0.0 mm 0.00 in0.0 mm 0.21 in5.3 mm